createdAt,value
2022-12-11T00:06:49.843Z,308
2022-12-11T00:26:49.910Z,300
2022-12-11T00:46:56.989Z,293
2022-12-11T01:06:50.016Z,286
2022-12-11T01:26:49.942Z,283
2022-12-11T01:46:50.096Z,283
2022-12-11T02:06:57.184Z,285
2022-12-11T02:26:57.247Z,288
2022-12-11T02:46:50.284Z,294
2022-12-11T03:26:54.541Z,305
2022-12-11T03:46:50.412Z,306
2022-12-11T04:06:50.462Z,306
2022-12-11T04:26:50.504Z,307
2022-12-11T04:46:50.530Z,307
2022-12-11T05:06:50.605Z,309
2022-12-11T05:26:50.571Z,309
2022-12-11T06:06:50.776Z,309
2022-12-11T06:26:50.821Z,308
2022-12-11T07:06:50.935Z,304
2022-12-11T07:26:50.982Z,294
2022-12-11T07:46:51.035Z,291
2022-12-11T08:06:51.078Z,285
2022-12-11T08:26:51.134Z,280
2022-12-11T08:46:51.064Z,279
2022-12-11T09:06:51.224Z,280
2022-12-11T09:26:51.279Z,287
2022-12-11T10:06:51.411Z,298
2022-12-11T10:26:51.433Z,300
2022-12-11T10:46:51.546Z,304
2022-12-11T11:06:51.563Z,306
2022-12-11T11:27:13.033Z,307
2022-12-11T11:46:51.693Z,303
2022-12-11T12:06:51.662Z,304
2022-12-11T12:26:51.714Z,309
2022-12-11T12:46:51.768Z,307
2022-12-11T13:06:51.896Z,309
2022-12-11T13:26:51.771Z,305
2022-12-11T13:46:51.792Z,304
2022-12-11T14:06:51.965Z,295
2022-12-11T14:26:52.017Z,294
2022-12-11T15:06:52.118Z,285
2022-12-11T15:26:52.175Z,284
2022-12-11T15:46:52.203Z,281
2022-12-11T16:06:59.263Z,286
2022-12-11T16:26:52.309Z,294
2022-12-11T16:46:52.359Z,302
2022-12-11T17:06:52.408Z,304
2022-12-11T17:26:52.487Z,305
2022-12-11T17:46:52.565Z,305
2022-12-11T18:06:52.459Z,307
2022-12-11T18:26:52.584Z,304
2022-12-11T18:46:52.654Z,312
2022-12-11T19:06:52.688Z,305
2022-12-11T19:26:52.771Z,306
2022-12-11T19:46:52.811Z,307
2022-12-11T20:06:52.854Z,310
2022-12-11T20:26:52.883Z,306
2022-12-11T20:46:52.928Z,300
2022-12-11T21:06:53.009Z,295
2022-12-11T21:26:53.045Z,284
2022-12-11T21:46:53.138Z,280
2022-12-11T22:06:53.140Z,280
2022-12-11T22:46:53.258Z,284
2022-12-11T23:06:53.313Z,291
2022-12-11T23:26:53.353Z,294
2022-12-11T23:46:53.536Z,304
